Time;durP1;ratioP1;P1;durP2;ratioP2;P2;SDS_P1;SDS_P2;PMS_P1;PMS_P2;Temp;Humidity;BMP_temperature;BMP_pressure;BME280_temperature;BME280_humidity;BME280_pressure;Samples;Min_cycle;Max_cycle;Signal;HPM_P1;HPM_P2
2024/03/25 00:01:54;;;;;;;3.88;1.00;;;;;;;;;;5041338;28;20401;-74
2024/03/25 00:04:24;;;;;;;1.52;0.85;;;;;;;;;;5041355;28;20044;-75
2024/03/25 00:06:53;;;;;;;1.80;0.98;;;;;;;;;;5041657;28;20048;-75
2024/03/25 00:09:22;;;;;;;4.80;1.00;;;;;;;;;;5041453;28;20056;-74
2024/03/25 00:11:54;;;;;;;2.22;1.00;;;;;;;;;;5041669;28;20503;-74
2024/03/25 00:14:23;;;;;;;4.53;1.05;;;;;;;;;;5025454;28;20049;-75
2024/03/25 00:16:52;;;;;;;3.88;0.80;;;;;;;;;;5041066;28;20044;-74
2024/03/25 00:19:21;;;;;;;3.00;1.10;;;;;;;;;;5041684;28;20055;-75
2024/03/25 00:21:50;;;;;;;2.70;1.02;;;;;;;;;;5041675;28;20048;-75
2024/03/25 00:24:18;;;;;;;2.85;0.77;;;;;;;;;;5041452;28;20041;-75
2024/03/25 00:26:47;;;;;;;7.55;1.00;;;;;;;;;;5041553;28;20059;-75
2024/03/25 00:29:15;;;;;;;6.32;1.10;;;;;;;;;;5041063;28;20044;-75
2024/03/25 00:31:45;;;;;;;13.65;1.00;;;;;;;;;;5027344;28;20049;-74
2024/03/25 00:34:14;;;;;;;8.18;1.10;;;;;;;;;;5021989;28;20637;-75
2024/03/25 00:36:42;;;;;;;3.80;1.20;;;;;;;;;;5021007;28;20050;-74
2024/03/25 00:39:11;;;;;;;3.90;1.05;;;;;;;;;;5021695;28;20057;-75
2024/03/25 00:41:40;;;;;;;2.00;0.80;;;;;;;;;;5021298;28;20669;-75
2024/03/25 00:44:10;;;;;;;2.17;0.82;;;;;;;;;;5022427;28;20053;-76
2024/03/25 00:46:41;;;;;;;4.82;0.73;;;;;;;;;;5027588;28;20622;-76
2024/03/25 00:49:10;;;;;;;9.88;1.10;;;;;;;;;;5021372;28;20507;-73
2024/03/25 00:51:39;;;;;;;2.50;0.75;;;;;;;;;;5022368;28;20049;-75
2024/03/25 00:54:07;;;;;;;4.35;1.02;;;;;;;;;;5023282;28;20049;-74
2024/03/25 00:56:36;;;;;;;4.00;0.80;;;;;;;;;;5038901;28;20052;-75
2024/03/25 00:59:06;;;;;;;2.70;0.70;;;;;;;;;;5040696;28;20046;-74
2024/03/25 01:01:35;;;;;;;3.47;1.10;;;;;;;;;;5040522;28;20037;-74
2024/03/25 01:04:04;;;;;;;4.65;0.88;;;;;;;;;;5041601;28;20045;-74
2024/03/25 01:06:33;;;;;;;2.40;0.57;;;;;;;;;;5024607;28;20504;-75
2024/03/25 01:09:01;;;;;;;3.08;0.80;;;;;;;;;;5039938;28;20503;-75
2024/03/25 01:11:30;;;;;;;2.47;1.13;;;;;;;;;;5040471;28;20049;-74
2024/03/25 01:13:58;;;;;;;3.00;0.80;;;;;;;;;;5040338;28;20527;-74
2024/03/25 01:16:27;;;;;;;6.28;1.33;;;;;;;;;;5040316;28;20037;-74
2024/03/25 01:18:58;;;;;;;1.48;0.73;;;;;;;;;;5040604;28;20539;-74
2024/03/25 01:21:26;;;;;;;2.88;0.90;;;;;;;;;;5039345;28;20067;-73
2024/03/25 01:23:55;;;;;;;2.67;1.00;;;;;;;;;;5036226;28;20045;-74
2024/03/25 01:26:23;;;;;;;3.88;0.60;;;;;;;;;;5039739;28;20056;-73
2024/03/25 01:28:51;;;;;;;2.97;0.68;;;;;;;;;;5039690;28;20052;-74
2024/03/25 01:31:21;;;;;;;4.45;0.70;;;;;;;;;;5040617;28;20056;-74
2024/03/25 01:33:50;;;;;;;3.95;0.82;;;;;;;;;;5040668;28;20400;-74
2024/03/25 01:36:19;;;;;;;7.55;0.98;;;;;;;;;;5040373;28;20041;-74
2024/03/25 01:38:47;;;;;;;2.53;0.95;;;;;;;;;;5040800;28;20056;-74
2024/03/25 01:41:22;;;;;;;1.67;0.80;;;;;;;;;;5023691;28;20061;-74
2024/03/25 01:43:52;;;;;;;2.30;0.77;;;;;;;;;;5041172;28;20041;-74
2024/03/25 01:46:21;;;;;;;1.48;0.63;;;;;;;;;;5039910;28;20045;-74
2024/03/25 01:48:52;;;;;;;1.92;0.80;;;;;;;;;;5040521;28;20048;-73
2024/03/25 01:51:23;;;;;;;1.48;0.65;;;;;;;;;;5040698;28;20036;-73
2024/03/25 01:53:54;;;;;;;3.33;0.73;;;;;;;;;;5040370;28;20044;-74
2024/03/25 01:56:25;;;;;;;3.72;1.15;;;;;;;;;;5040428;28;20041;-74
2024/03/25 01:58:54;;;;;;;1.02;0.80;;;;;;;;;;5023457;28;20508;-74
2024/03/25 02:01:23;;;;;;;1.45;0.60;;;;;;;;;;5039738;28;20041;-73
2024/03/25 02:03:54;;;;;;;6.70;0.80;;;;;;;;;;5039957;28;20044;-74
2024/03/25 02:06:24;;;;;;;1.48;0.77;;;;;;;;;;5040846;28;20052;-74
2024/03/25 02:08:54;;;;;;;2.03;0.65;;;;;;;;;;5043748;28;20762;-74
2024/03/25 02:11:23;;;;;;;1.10;0.80;;;;;;;;;;5027029;28;20056;-74
2024/03/25 02:13:52;;;;;;;5.13;0.90;;;;;;;;;;5043828;28;20053;-73
2024/03/25 02:16:20;;;;;;;4.63;0.90;;;;;;;;;;5027181;28;20060;-74
2024/03/25 02:18:49;;;;;;;1.67;0.73;;;;;;;;;;5043616;28;20052;-74
2024/03/25 02:21:18;;;;;;;1.08;0.75;;;;;;;;;;5043565;28;20041;-74
2024/03/25 02:23:50;;;;;;;6.15;0.88;;;;;;;;;;5043672;28;20056;-74
2024/03/25 02:26:19;;;;;;;3.13;0.80;;;;;;;;;;5043796;28;20041;-74
2024/03/25 02:28:47;;;;;;;6.22;0.88;;;;;;;;;;5043892;28;20415;-74
2024/03/25 02:31:17;;;;;;;2.10;0.50;;;;;;;;;;5043683;28;20045;-74
2024/03/25 02:33:45;;;;;;;0.93;0.50;;;;;;;;;;5043345;28;20045;-74
2024/03/25 02:36:14;;;;;;;2.88;0.75;;;;;;;;;;5044209;28;20063;-74
2024/03/25 02:38:43;;;;;;;2.03;0.63;;;;;;;;;;5027126;28;20515;-74
2024/03/25 02:41:12;;;;;;;1.88;0.90;;;;;;;;;;5043444;28;20041;-74
2024/03/25 02:43:40;;;;;;;2.05;0.70;;;;;;;;;;5043627;28;20041;-74
2024/03/25 02:46:09;;;;;;;4.00;1.00;;;;;;;;;;5042890;28;20044;-74
2024/03/25 02:48:38;;;;;;;2.63;0.80;;;;;;;;;;5043341;28;20487;-74
2024/03/25 02:51:07;;;;;;;3.78;0.77;;;;;;;;;;5042879;28;20059;-74
2024/03/25 02:53:35;;;;;;;2.53;0.50;;;;;;;;;;5043122;28;20045;-74
2024/03/25 02:56:04;;;;;;;1.08;0.75;;;;;;;;;;5043529;28;20511;-74
2024/03/25 02:58:32;;;;;;;2.75;0.82;;;;;;;;;;5043093;28;20048;-74
2024/03/25 03:01:01;;;;;;;0.65;0.55;;;;;;;;;;5026678;28;20052;-74
2024/03/25 03:03:29;;;;;;;2.13;0.63;;;;;;;;;;5042337;28;20049;-74
2024/03/25 03:05:58;;;;;;;3.20;0.80;;;;;;;;;;5042455;28;20059;-74
2024/03/25 03:08:26;;;;;;;2.30;0.77;;;;;;;;;;5043031;28;20808;-74
2024/03/25 03:10:54;;;;;;;2.33;0.73;;;;;;;;;;5043279;28;20056;-74
2024/03/25 03:13:23;;;;;;;5.82;0.80;;;;;;;;;;5042768;28;20045;-74
2024/03/25 03:15:52;;;;;;;7.82;0.98;;;;;;;;;;5043711;28;20044;-74
2024/03/25 03:18:20;;;;;;;9.40;0.90;;;;;;;;;;5041712;28;20495;-74
2024/03/25 03:20:49;;;;;;;7.82;0.85;;;;;;;;;;5042489;28;20523;-74
2024/03/25 03:23:17;;;;;;;1.92;0.73;;;;;;;;;;5042286;28;20049;-74
2024/03/25 03:25:46;;;;;;;5.90;1.00;;;;;;;;;;5042064;28;20502;-74
2024/03/25 03:28:16;;;;;;;7.20;0.80;;;;;;;;;;5042308;28;20427;-74
2024/03/25 03:30:45;;;;;;;4.78;0.93;;;;;;;;;;5042449;28;20095;-74
2024/03/25 03:33:13;;;;;;;1.60;0.80;;;;;;;;;;5042683;28;20507;-74
2024/03/25 03:35:43;;;;;;;3.30;1.02;;;;;;;;;;5042241;28;20045;-74
2024/03/25 03:38:11;;;;;;;;;;;;;;;;;;5042408;28;20064;-74
2024/03/25 03:40:40;;;;;;;4.35;0.68;;;;;;;;;;5041966;28;19920;-74
2024/03/25 03:43:09;;;;;;;1.63;0.68;;;;;;;;;;5042002;28;20052;-74
2024/03/25 03:45:37;;;;;;;5.10;0.80;;;;;;;;;;5042088;28;20048;-74
2024/03/25 03:48:06;;;;;;;2.20;0.68;;;;;;;;;;5042407;28;20052;-74
2024/03/25 03:50:36;;;;;;;0.98;0.60;;;;;;;;;;5042037;28;20332;-74
2024/03/25 03:53:04;;;;;;;0.77;0.70;;;;;;;;;;5041612;28;20049;-74
2024/03/25 03:55:33;;;;;;;4.22;0.88;;;;;;;;;;5041745;28;20057;-74
2024/03/25 03:58:02;;;;;;;4.22;0.80;;;;;;;;;;5041648;28;20045;-74
2024/03/25 04:00:33;;;;;;;2.30;0.80;;;;;;;;;;5025807;28;20057;-74
2024/03/25 04:03:02;;;;;;;2.25;0.70;;;;;;;;;;5042375;28;20055;-74
2024/03/25 04:05:31;;;;;;;3.45;0.80;;;;;;;;;;5042443;28;20041;-74
2024/03/25 04:07:59;;;;;;;5.43;1.27;;;;;;;;;;5042050;28;20055;-74
2024/03/25 04:10:28;;;;;;;4.40;0.68;;;;;;;;;;5041750;28;20048;-74
2024/03/25 04:12:56;;;;;;;;;;;;;;;;;;5041892;28;20506;-74
2024/03/25 04:15:26;;;;;;;3.50;0.77;;;;;;;;;;5024384;28;20258;-74
2024/03/25 04:17:53;;;;;;;;;;;;;;;;;;5041415;28;20053;-74
2024/03/25 04:20:23;;;;;;;6.40;0.93;;;;;;;;;;5041064;28;20494;-74
2024/03/25 04:22:52;;;;;;;2.92;0.95;;;;;;;;;;5041210;28;20048;-74
2024/03/25 04:25:21;;;;;;;2.95;0.80;;;;;;;;;;5041231;28;20044;-74
2024/03/25 04:27:49;;;;;;;2.08;0.65;;;;;;;;;;5041162;28;20131;-74
2024/03/25 04:30:17;;;;;;;3.95;1.10;;;;;;;;;;5040733;28;20060;-74
2024/03/25 04:32:46;;;;;;;2.78;0.98;;;;;;;;;;5041431;28;20072;-74
2024/03/25 04:35:15;;;;;;;4.60;1.20;;;;;;;;;;5041098;28;20045;-74
2024/03/25 04:37:44;;;;;;;4.53;0.80;;;;;;;;;;5025480;28;20049;-74
2024/03/25 04:40:14;;;;;;;3.60;0.65;;;;;;;;;;5041130;28;20048;-74
2024/03/25 04:42:43;;;;;;;3.67;0.93;;;;;;;;;;5041291;28;20518;-74
2024/03/25 04:45:14;;;;;;;5.35;1.05;;;;;;;;;;5041403;28;20056;-74
2024/03/25 04:47:44;;;;;;;4.03;1.10;;;;;;;;;;5040752;28;20056;-74
2024/03/25 04:50:12;;;;;;;1.30;1.10;;;;;;;;;;5040885;28;20056;-74
2024/03/25 04:52:41;;;;;;;2.38;0.82;;;;;;;;;;5040764;28;20495;-74
2024/03/25 04:55:09;;;;;;;1.10;0.68;;;;;;;;;;5041079;28;20053;-74
2024/03/25 04:57:37;;;;;;;2.63;1.00;;;;;;;;;;5040476;28;20052;-74
2024/03/25 05:00:07;;;;;;;1.33;0.90;;;;;;;;;;5024923;28;20514;-74
2024/03/25 05:02:38;;;;;;;4.38;1.20;;;;;;;;;;5040500;28;20041;-73
2024/03/25 05:05:07;;;;;;;1.35;0.80;;;;;;;;;;5040441;28;20056;-73
2024/03/25 05:07:36;;;;;;;4.05;0.82;;;;;;;;;;5040518;28;20045;-73
2024/03/25 05:10:05;;;;;;;3.17;1.13;;;;;;;;;;5040872;28;20060;-73
2024/03/25 05:12:34;;;;;;;;;;;;;;;;;;5040933;28;20045;-73
2024/03/25 05:15:02;;;;;;;3.15;1.20;;;;;;;;;;5041046;28;20272;-73
2024/03/25 05:17:30;;;;;;;3.08;1.05;;;;;;;;;;5024488;28;20052;-73
2024/03/25 05:19:59;;;;;;;5.47;1.10;;;;;;;;;;5040615;28;20083;-73
2024/03/25 05:22:27;;;;;;;5.25;1.42;;;;;;;;;;5040108;28;20041;-73
2024/03/25 05:24:56;;;;;;;1.70;0.85;;;;;;;;;;5041421;28;20048;-73
2024/03/25 05:27:27;;;;;;;4.18;0.90;;;;;;;;;;5024469;28;20047;-73
2024/03/25 05:29:55;;;;;;;2.25;1.00;;;;;;;;;;5041128;28;20500;-73
2024/03/25 05:32:24;;;;;;;0.93;0.70;;;;;;;;;;5040730;28;20103;-73
2024/03/25 05:34:52;;;;;;;3.53;0.68;;;;;;;;;;5040001;28;20052;-73
2024/03/25 05:37:21;;;;;;;4.35;1.00;;;;;;;;;;5041048;28;20056;-73
2024/03/25 05:39:50;;;;;;;4.28;1.05;;;;;;;;;;5039727;28;20587;-73
2024/03/25 05:42:20;;;;;;;1.20;1.00;;;;;;;;;;5042666;28;20056;-73
2024/03/25 05:44:48;;;;;;;1.88;1.10;;;;;;;;;;5044244;28;20057;-73
2024/03/25 05:47:17;;;;;;;4.15;1.45;;;;;;;;;;5044540;28;20048;-73
2024/03/25 05:49:47;;;;;;;1.38;0.93;;;;;;;;;;5045027;28;20053;-73
2024/03/25 05:52:16;;;;;;;2.97;0.77;;;;;;;;;;5044360;28;20049;-73
2024/03/25 05:54:44;;;;;;;2.63;1.15;;;;;;;;;;5027629;28;20044;-73
2024/03/25 05:57:14;;;;;;;4.07;1.10;;;;;;;;;;5043934;28;20045;-73
2024/03/25 05:59:42;;;;;;;2.25;1.20;;;;;;;;;;5027892;28;20044;-73
2024/03/25 06:02:10;;;;;;;2.45;1.20;;;;;;;;;;5044135;28;20495;-73
2024/03/25 06:04:39;;;;;;;2.67;0.95;;;;;;;;;;5043622;28;20060;-73
2024/03/25 06:07:08;;;;;;;4.25;0.85;;;;;;;;;;5043563;28;20063;-73
2024/03/25 06:09:38;;;;;;;4.88;1.27;;;;;;;;;;5043705;28;20412;-73
2024/03/25 06:12:08;;;;;;;3.00;1.10;;;;;;;;;;5043676;28;20049;-73
2024/03/25 06:14:37;;;;;;;3.35;0.80;;;;;;;;;;5043509;28;20400;-73
2024/03/25 06:17:06;;;;;;;3.40;0.75;;;;;;;;;;5044200;28;20052;-73
2024/03/25 06:19:35;;;;;;;2.55;0.90;;;;;;;;;;5044201;28;20064;-73
2024/03/25 06:22:03;;;;;;;3.08;0.82;;;;;;;;;;5043497;28;20045;-73
2024/03/25 06:24:32;;;;;;;1.38;0.70;;;;;;;;;;5043444;28;20044;-73
2024/03/25 06:27:01;;;;;;;3.60;0.80;;;;;;;;;;5043558;28;20064;-73
2024/03/25 06:29:29;;;;;;;1.55;0.75;;;;;;;;;;5042971;28;20044;-73
2024/03/25 06:34:43;;;;;;;1.75;1.00;;;;;;;;;;5043049;28;20072;-73
2024/03/25 06:37:12;;;;;;;0.68;0.68;;;;;;;;;;5043441;28;20048;-73
2024/03/25 06:39:41;;;;;;;0.95;0.77;;;;;;;;;;5042706;28;20415;-73
2024/03/25 06:42:09;;;;;;;3.58;1.02;;;;;;;;;;5042651;28;20567;-73
2024/03/25 06:44:38;;;;;;;2.55;0.88;;;;;;;;;;5043308;28;20048;-73
2024/03/25 06:47:06;;;;;;;2.45;0.80;;;;;;;;;;5043067;28;20045;-73
2024/03/25 06:49:35;;;;;;;1.92;0.82;;;;;;;;;;5043284;28;20064;-73
2024/03/25 06:52:04;;;;;;;1.63;1.00;;;;;;;;;;5043113;28;20049;-74
2024/03/25 06:54:33;;;;;;;3.97;0.90;;;;;;;;;;5025187;28;20053;-73
2024/03/25 06:57:02;;;;;;;1.65;0.82;;;;;;;;;;5042879;28;20056;-73
2024/03/25 06:59:36;;;;;;;1.67;0.90;;;;;;;;;;5042622;28;20053;-73
2024/03/25 07:02:05;;;;;;;5.53;0.98;;;;;;;;;;5043443;28;20045;-73
2024/03/25 07:04:35;;;;;;;2.08;0.80;;;;;;;;;;5043649;28;20056;-73
2024/03/25 07:07:04;;;;;;;1.10;0.95;;;;;;;;;;5043009;28;20527;-73
2024/03/25 07:09:34;;;;;;;3.70;1.00;;;;;;;;;;5042816;28;20057;-73
2024/03/25 07:12:02;;;;;;;2.90;1.00;;;;;;;;;;5042303;28;20408;-73
2024/03/25 07:14:31;;;;;;;4.20;1.00;;;;;;;;;;5025959;28;20053;-73
2024/03/25 07:17:00;;;;;;;2.70;1.00;;;;;;;;;;5026516;28;20059;-73
2024/03/25 07:19:29;;;;;;;1.25;1.00;;;;;;;;;;5042201;28;20055;-73
2024/03/25 07:21:58;;;;;;;0.77;0.70;;;;;;;;;;5042612;28;20060;-73
2024/03/25 07:24:26;;;;;;;3.63;1.02;;;;;;;;;;5042338;28;20583;-73
2024/03/25 07:26:54;;;;;;;1.85;1.10;;;;;;;;;;5042593;28;20041;-73
2024/03/25 07:29:22;;;;;;;3.53;0.88;;;;;;;;;;5042570;28;20112;-73
2024/03/25 07:31:50;;;;;;;1.75;1.08;;;;;;;;;;5042506;28;20063;-73
2024/03/25 07:34:19;;;;;;;3.53;1.00;;;;;;;;;;5042305;28;20049;-73
2024/03/25 07:36:48;;;;;;;;;;;;;;;;;;5042874;28;20049;-73
2024/03/25 07:39:16;;;;;;;4.43;1.10;;;;;;;;;;5042523;28;19925;-73
2024/03/25 07:41:45;;;;;;;10.52;1.20;;;;;;;;;;5042402;28;20041;-73
2024/03/25 07:44:13;;;;;;;1.58;0.80;;;;;;;;;;5041912;28;20095;-73
2024/03/25 07:46:42;;;;;;;1.67;0.80;;;;;;;;;;5042206;28;20041;-77
2024/03/25 07:49:11;;;;;;;7.13;1.20;;;;;;;;;;5042334;28;20060;-73
2024/03/25 07:51:39;;;;;;;2.15;1.00;;;;;;;;;;5042107;28;20041;-73
2024/03/25 07:54:10;;;;;;;1.98;1.02;;;;;;;;;;5041952;28;20061;-73
2024/03/25 07:56:38;;;;;;;5.72;0.93;;;;;;;;;;5042099;28;20522;-73
2024/03/25 07:59:06;;;;;;;1.40;0.82;;;;;;;;;;5041916;28;20045;-73
2024/03/25 08:01:35;;;;;;;1.00;0.77;;;;;;;;;;5025976;28;20435;-73
2024/03/25 08:04:04;;;;;;;2.15;1.00;;;;;;;;;;5041522;28;20041;-73
2024/03/25 08:06:33;;;;;;;;;;;;;;;;;;5025874;28;20041;-73
2024/03/25 08:09:01;;;;;;;5.10;1.20;;;;;;;;;;5041480;28;19921;-74
2024/03/25 08:11:29;;;;;;;1.58;0.90;;;;;;;;;;5042196;28;20041;-74
2024/03/25 08:13:57;;;;;;;6.22;1.08;;;;;;;;;;5041173;28;20079;-74
2024/03/25 08:16:27;;;;;;;2.58;1.00;;;;;;;;;;5040764;28;20656;-74
2024/03/25 08:18:55;;;;;;;2.33;0.93;;;;;;;;;;5025363;28;20041;-74
2024/03/25 08:21:23;;;;;;;2.08;0.70;;;;;;;;;;5041522;28;20516;-74
2024/03/25 08:23:51;;;;;;;3.30;1.05;;;;;;;;;;5041308;28;20052;-75
2024/03/25 08:26:20;;;;;;;6.57;1.00;;;;;;;;;;5041262;28;20044;-74
2024/03/25 08:28:49;;;;;;;2.95;1.05;;;;;;;;;;5041671;28;20045;-74
2024/03/25 08:31:17;;;;;;;2.70;0.82;;;;;;;;;;5025514;28;20508;-74
2024/03/25 08:33:46;;;;;;;1.75;0.82;;;;;;;;;;5041696;28;20051;-74
2024/03/25 08:36:15;;;;;;;1.13;0.80;;;;;;;;;;5040788;28;20056;-74
2024/03/25 08:38:43;;;;;;;1.10;0.93;;;;;;;;;;5041306;28;20045;-74
2024/03/25 08:41:12;;;;;;;2.58;1.45;;;;;;;;;;5041093;28;20045;-74
2024/03/25 08:43:40;;;;;;;2.92;1.13;;;;;;;;;;5041412;28;20059;-74
2024/03/25 08:46:08;;;;;;;3.30;0.90;;;;;;;;;;5041038;28;20116;-74
2024/03/25 08:48:37;;;;;;;2.83;1.05;;;;;;;;;;5040584;28;20415;-74
2024/03/25 08:51:05;;;;;;;4.82;1.00;;;;;;;;;;5040617;28;20041;-75
2024/03/25 08:53:33;;;;;;;1.77;0.70;;;;;;;;;;5041319;28;20052;-75
2024/03/25 08:56:04;;;;;;;4.45;1.10;;;;;;;;;;5040934;28;20079;-74
2024/03/25 08:58:33;;;;;;;5.53;1.30;;;;;;;;;;5041083;28;20965;-74
2024/03/25 09:01:02;;;;;;;5.70;1.13;;;;;;;;;;5041390;28;20528;-75
2024/03/25 09:03:33;;;;;;;2.92;0.85;;;;;;;;;;5040517;28;20071;-75
2024/03/25 09:06:03;;;;;;;3.83;1.00;;;;;;;;;;5040522;28;20045;-75
2024/03/25 09:11:02;;;;;;;2.83;0.85;;;;;;;;;;5040530;28;20052;-75
2024/03/25 09:11:20;;;;;;;5.40;1.30;;;;;;;;;;5041822;28;20739;-75
2024/03/25 09:13:48;;;;;;;6.72;1.33;;;;;;;;;;5041524;28;20044;-75
2024/03/25 09:16:17;;;;;;;5.53;1.23;;;;;;;;;;5023436;28;20049;-75
2024/03/25 09:18:46;;;;;;;1.38;0.98;;;;;;;;;;5041150;28;20037;-74
2024/03/25 09:21:15;;;;;;;4.43;1.08;;;;;;;;;;5040429;28;20139;-75
2024/03/25 09:23:43;;;;;;;2.38;0.90;;;;;;;;;;5040351;28;20060;-74
2024/03/25 09:26:12;;;;;;;3.78;1.25;;;;;;;;;;5040627;28;20440;-75
2024/03/25 09:28:40;;;;;;;2.42;1.15;;;;;;;;;;5040728;28;20052;-75
2024/03/25 09:31:09;;;;;;;10.02;1.33;;;;;;;;;;5040269;28;20591;-75
2024/03/25 09:33:38;;;;;;;8.35;1.50;;;;;;;;;;5024315;28;20488;-75
2024/03/25 09:36:07;;;;;;;7.25;1.80;;;;;;;;;;5040437;28;20037;-75
2024/03/25 09:38:35;;;;;;;3.72;1.30;;;;;;;;;;5040127;28;20056;-77
2024/03/25 09:41:04;;;;;;;2.83;1.30;;;;;;;;;;5040185;28;20053;-75
2024/03/25 09:43:40;;;;;;;5.65;1.42;;;;;;;;;;5040324;28;20045;-74
2024/03/25 09:46:11;;;;;;;16.10;1.65;;;;;;;;;;5041206;28;20064;-75
2024/03/25 09:48:42;;;;;;;10.30;2.00;;;;;;;;;;5040555;28;20060;-75
2024/03/25 09:51:10;;;;;;;8.73;1.70;;;;;;;;;;5040335;28;20060;-75
2024/03/25 09:53:39;;;;;;;6.97;1.55;;;;;;;;;;5040025;28;20041;-75
2024/03/25 09:56:07;;;;;;;3.72;1.50;;;;;;;;;;5039610;28;20052;-75
2024/03/25 09:58:37;;;;;;;1.88;1.27;;;;;;;;;;5040963;28;20048;-74
2024/03/25 10:01:07;;;;;;;5.72;1.40;;;;;;;;;;5040456;28;20045;-83
2024/03/25 10:03:35;;;;;;;6.55;1.65;;;;;;;;;;5039955;28;20044;-75
2024/03/25 10:06:03;;;;;;;8.10;1.63;;;;;;;;;;5040955;28;20749;-75
2024/03/25 10:08:32;;;;;;;5.18;1.63;;;;;;;;;;5039482;28;20048;-75
2024/03/25 10:11:02;;;;;;;7.85;1.45;;;;;;;;;;5024423;28;20412;-75
2024/03/25 10:13:31;;;;;;;12.15;1.60;;;;;;;;;;5039949;28;20045;-75
2024/03/25 10:15:59;;;;;;;8.10;2.20;;;;;;;;;;5023785;28;20065;-74
2024/03/25 10:18:28;;;;;;;8.93;2.10;;;;;;;;;;5023799;28;20061;-75
2024/03/25 10:20:56;;;;;;;8.00;1.73;;;;;;;;;;5040123;28;20040;-76
2024/03/25 10:23:28;;;;;;;7.55;2.13;;;;;;;;;;5040161;28;20053;-75
2024/03/25 10:25:57;;;;;;;7.30;1.70;;;;;;;;;;5039733;28;20797;-76
2024/03/25 10:28:25;;;;;;;6.40;1.70;;;;;;;;;;5042260;28;20048;-75
2024/03/25 10:30:54;;;;;;;7.40;2.15;;;;;;;;;;5043272;28;20041;-76
2024/03/25 10:33:22;;;;;;;8.38;1.90;;;;;;;;;;5043599;28;20071;-75
2024/03/25 10:35:53;;;;;;;10.25;1.33;;;;;;;;;;5044132;28;20048;-73
2024/03/25 10:38:24;;;;;;;4.55;1.75;;;;;;;;;;5044023;28;20052;-74
2024/03/25 10:40:56;;;;;;;4.32;1.55;;;;;;;;;;5043934;28;20056;-73
2024/03/25 10:43:29;;;;;;;5.72;1.70;;;;;;;;;;5043587;28;20048;-74
2024/03/25 10:45:59;;;;;;;7.80;1.40;;;;;;;;;;5042148;28;20500;-74
2024/03/25 10:48:40;;;;;;;6.03;1.27;;;;;;;;;;5011091;28;20049;-74
2024/03/25 10:51:10;;;;;;;3.17;1.92;;;;;;;;;;5043353;28;20048;-74
2024/03/25 10:53:41;;;;;;;8.25;1.75;;;;;;;;;;5043075;28;20045;-75
2024/03/25 10:56:12;;;;;;;2.53;1.85;;;;;;;;;;5043335;28;20439;-74
2024/03/25 10:58:41;;;;;;;2.80;2.00;;;;;;;;;;5025965;28;20041;-74
2024/03/25 11:01:10;;;;;;;5.03;1.80;;;;;;;;;;5043074;28;20052;-74
2024/03/25 11:03:39;;;;;;;5.80;2.05;;;;;;;;;;5043184;28;20041;-76
2024/03/25 11:06:08;;;;;;;7.35;2.50;;;;;;;;;;5042801;28;20519;-74
2024/03/25 11:08:38;;;;;;;5.38;2.65;;;;;;;;;;5042429;28;20404;-74
2024/03/25 11:11:07;;;;;;;10.32;3.80;;;;;;;;;;5042874;28;20049;-73
2024/03/25 11:13:38;;;;;;;11.88;4.45;;;;;;;;;;5043277;28;20834;-74
2024/03/25 11:16:12;;;;;;;5.18;2.20;;;;;;;;;;5042776;28;20041;-73
2024/03/25 11:18:51;;;;;;;4.72;2.60;;;;;;;;;;5042565;28;20120;-73
2024/03/25 11:21:26;;;;;;;11.93;2.92;;;;;;;;;;5043204;28;21030;-73
2024/03/25 11:23:54;;;;;;;6.75;2.70;;;;;;;;;;5026961;28;20037;-74
2024/03/25 11:26:27;;;;;;;3.35;2.17;;;;;;;;;;5043229;28;20036;-75
2024/03/25 11:28:56;;;;;;;5.38;2.50;;;;;;;;;;5042977;28;20745;-74
2024/03/25 11:31:27;;;;;;;3.83;2.65;;;;;;;;;;5042209;28;20056;-73
2024/03/25 11:33:57;;;;;;;3.90;2.40;;;;;;;;;;5042171;28;20040;-74
2024/03/25 11:36:26;;;;;;;7.20;2.92;;;;;;;;;;5041782;28;20045;-73
2024/03/25 11:39:09;;;;;;;3.88;2.42;;;;;;;;;;5040864;28;20499;-74
2024/03/25 11:41:42;;;;;;;6.88;2.85;;;;;;;;;;5041485;28;20048;-74
2024/03/25 11:44:17;;;;;;;5.70;3.13;;;;;;;;;;5041465;28;20044;-73
2024/03/25 11:46:45;;;;;;;10.57;5.75;;;;;;;;;;5042209;28;20115;-73
2024/03/25 11:49:17;;;;;;;4.63;2.30;;;;;;;;;;5041527;28;20051;-73
2024/03/25 11:51:46;;;;;;;4.60;2.42;;;;;;;;;;5042380;28;20045;-73
2024/03/25 11:54:15;;;;;;;6.15;2.47;;;;;;;;;;5042611;28;20065;-72
2024/03/25 11:56:44;;;;;;;12.00;2.83;;;;;;;;;;5041217;28;20049;-73
2024/03/25 11:59:12;;;;;;;6.00;3.67;;;;;;;;;;5025697;28;20617;-75
2024/03/25 12:01:41;;;;;;;3.65;2.22;;;;;;;;;;5042116;28;20492;-74
2024/03/25 12:04:18;;;;;;;6.80;2.35;;;;;;;;;;5042035;28;20045;-74
2024/03/25 12:06:48;;;;;;;5.63;2.40;;;;;;;;;;5041811;28;20041;-74
2024/03/25 12:12:03;;;;;;;5.35;2.53;;;;;;;;;;5041535;28;20037;-76
2024/03/25 12:14:32;;;;;;;3.85;1.92;;;;;;;;;;5025124;28;20041;-74
2024/03/25 12:17:02;;;;;;;6.10;2.40;;;;;;;;;;5041088;28;20053;-74
2024/03/25 12:19:30;;;;;;;3.88;2.03;;;;;;;;;;5041367;28;20045;-74
2024/03/25 12:22:00;;;;;;;;;;;;;;;;;;5024908;28;20055;-74
2024/03/25 12:24:28;;;;;;;8.48;2.85;;;;;;;;;;5025181;28;19928;-74
2024/03/25 12:26:58;;;;;;;4.50;1.60;;;;;;;;;;5041055;28;20037;-73
2024/03/25 12:29:27;;;;;;;3.95;2.10;;;;;;;;;;5041507;28;20049;-73
2024/03/25 12:31:58;;;;;;;4.57;1.92;;;;;;;;;;5041918;28;20592;-74
2024/03/25 12:34:26;;;;;;;8.50;2.08;;;;;;;;;;5025084;28;20060;-73
2024/03/25 12:37:04;;;;;;;3.38;1.60;;;;;;;;;;5041144;28;20040;-74
2024/03/25 12:39:34;;;;;;;5.15;1.83;;;;;;;;;;5041067;28;20507;-74
2024/03/25 12:42:05;;;;;;;7.57;1.90;;;;;;;;;;5041533;28;20052;-75
2024/03/25 12:44:34;;;;;;;7.35;1.75;;;;;;;;;;5025182;28;20068;-75
2024/03/25 12:47:02;;;;;;;4.05;1.65;;;;;;;;;;5041608;28;20045;-75
2024/03/25 12:49:31;;;;;;;8.52;3.63;;;;;;;;;;5041187;28;20040;-77
2024/03/25 12:51:59;;;;;;;5.35;2.08;;;;;;;;;;5040447;28;20041;-76
2024/03/25 12:54:28;;;;;;;2.03;1.42;;;;;;;;;;5041119;28;20053;-74
2024/03/25 12:56:57;;;;;;;10.02;1.88;;;;;;;;;;5040359;28;20041;-76
2024/03/25 12:59:27;;;;;;;4.68;1.52;;;;;;;;;;5026134;28;20550;-75
2024/03/25 13:01:56;;;;;;;3.05;1.42;;;;;;;;;;5043005;28;20049;-75
2024/03/25 13:04:24;;;;;;;2.88;1.58;;;;;;;;;;5043925;28;20045;-75
2024/03/25 13:06:53;;;;;;;5.38;2.08;;;;;;;;;;5040821;28;20496;-75
2024/03/25 13:09:21;;;;;;;6.13;1.58;;;;;;;;;;5041483;28;20045;-75
2024/03/25 13:11:50;;;;;;;3.35;2.00;;;;;;;;;;5040055;28;20041;-75
2024/03/25 13:14:19;;;;;;;3.72;1.83;;;;;;;;;;5040662;28;20056;-74
2024/03/25 13:16:48;;;;;;;7.50;2.15;;;;;;;;;;5041176;28;20652;-75
2024/03/25 13:19:18;;;;;;;7.25;2.40;;;;;;;;;;5023841;28;20079;-75
2024/03/25 13:21:47;;;;;;;4.85;2.22;;;;;;;;;;5024572;28;20499;-75
2024/03/25 13:24:16;;;;;;;6.47;2.13;;;;;;;;;;5040828;28;20053;-75
2024/03/25 13:26:45;;;;;;;3.30;2.08;;;;;;;;;;5040536;28;20041;-76
2024/03/25 13:29:13;;;;;;;;;;;;;;;;;;5041311;28;20045;-74
2024/03/25 13:31:41;;;;;;;4.38;2.22;;;;;;;;;;5040711;28;19936;-75
2024/03/25 13:34:09;;;;;;;4.78;2.28;;;;;;;;;;5040749;28;20052;-76
2024/03/25 13:36:37;;;;;;;7.80;2.55;;;;;;;;;;5041219;28;20041;-75
2024/03/25 13:39:06;;;;;;;;;;;;;;;;;;5025323;28;20064;-76
2024/03/25 13:41:35;;;;;;;5.78;2.83;;;;;;;;;;5041025;28;19925;-77
2024/03/25 13:44:04;;;;;;;4.90;2.40;;;;;;;;;;5041178;28;20048;-76
2024/03/25 13:46:32;;;;;;;8.80;2.67;;;;;;;;;;5045177;28;20060;-74
2024/03/25 13:49:00;;;;;;;9.73;2.40;;;;;;;;;;5042375;28;20052;-75
2024/03/25 13:51:29;;;;;;;9.95;2.50;;;;;;;;;;5028298;28;20064;-75
2024/03/25 13:53:58;;;;;;;7.88;2.90;;;;;;;;;;5042319;28;20415;-74
2024/03/25 13:56:26;;;;;;;;;;;;;;;;;;5025552;28;20415;-74
2024/03/25 13:58:54;;;;;;;7.32;3.20;;;;;;;;;;5024387;28;19924;-76
2024/03/25 14:01:24;;;;;;;8.23;2.92;;;;;;;;;;5040481;28;20041;-77
2024/03/25 14:03:54;;;;;;;5.50;1.35;;;;;;;;;;5043311;28;20451;-75
2024/03/25 14:06:22;;;;;;;3.63;1.27;;;;;;;;;;5044590;28;20045;-75
2024/03/25 14:08:50;;;;;;;3.97;1.27;;;;;;;;;;5028483;28;20056;-74
2024/03/25 14:11:19;;;;;;;2.17;1.13;;;;;;;;;;5044943;28;20467;-76
2024/03/25 14:13:47;;;;;;;;;;;;;;;;;;5044476;28;20539;-75
2024/03/25 14:16:15;;;;;;;2.38;1.13;;;;;;;;;;5027759;28;19936;-74
2024/03/25 14:18:44;;;;;;;2.85;1.33;;;;;;;;;;5044894;28;20041;-76
2024/03/25 14:21:12;;;;;;;6.93;1.48;;;;;;;;;;5044506;28;20049;-73
2024/03/25 14:23:43;;;;;;;2.13;1.50;;;;;;;;;;5044643;28;20496;-73
2024/03/25 14:26:15;;;;;;;13.43;2.30;;;;;;;;;;5045988;28;20049;-74
2024/03/25 14:28:44;;;;;;;3.65;1.20;;;;;;;;;;5045588;28;20049;-73
2024/03/25 14:31:12;;;;;;;6.35;1.30;;;;;;;;;;5043829;28;20048;-73
2024/03/25 14:33:40;;;;;;;2.80;1.30;;;;;;;;;;5044084;28;20139;-75
2024/03/25 14:36:08;;;;;;;4.50;1.67;;;;;;;;;;5044042;28;20069;-74
2024/03/25 14:38:39;;;;;;;;;;;;;;;;;;5044939;28;20045;-75
2024/03/25 14:41:07;;;;;;;3.75;1.02;;;;;;;;;;5043830;28;19925;-75
2024/03/25 14:43:36;;;;;;;7.22;1.55;;;;;;;;;;5043491;28;20056;-74
2024/03/25 14:46:05;;;;;;;2.75;1.02;;;;;;;;;;5043936;28;20544;-74
2024/03/25 14:48:34;;;;;;;5.80;1.20;;;;;;;;;;5044711;28;20041;-74
2024/03/25 14:51:02;;;;;;;5.22;1.15;;;;;;;;;;5044328;28;20041;-76
2024/03/25 14:53:31;;;;;;;3.45;1.25;;;;;;;;;;5027794;28;20049;-73
2024/03/25 14:56:00;;;;;;;3.42;1.42;;;;;;;;;;5045851;28;20063;-75
2024/03/25 14:58:30;;;;;;;5.28;1.20;;;;;;;;;;5044404;28;20045;-76
2024/03/25 15:00:58;;;;;;;8.05;3.40;;;;;;;;;;5044313;28;20416;-76
2024/03/25 15:03:27;;;;;;;6.25;2.67;;;;;;;;;;5042822;28;20041;-76